createdAt,value
2018-11-27T00:00:34.525Z,6.00
2018-11-27T00:01:34.582Z,6.20
2018-11-27T00:02:34.636Z,6.40
2018-11-27T00:03:34.692Z,6.70
2018-11-27T00:04:34.749Z,6.40
2018-11-27T00:05:34.804Z,6.20
2018-11-27T00:06:34.860Z,6.40
2018-11-27T00:07:34.915Z,5.90
2018-11-27T00:08:34.971Z,5.50
2018-11-27T00:09:35.029Z,6.30
2018-11-27T00:10:35.083Z,6.50
2018-11-27T00:11:35.143Z,6.30
2018-11-27T00:12:35.195Z,6.40
2018-11-27T00:13:35.252Z,6.70
2018-11-27T00:14:35.307Z,6.50
2018-11-27T00:15:35.364Z,6.20
2018-11-27T00:16:35.419Z,6.60
2018-11-27T00:17:35.476Z,6.90
2018-11-27T00:18:35.531Z,7.30
2018-11-27T00:19:35.588Z,6.70
2018-11-27T00:20:35.643Z,6.60
2018-11-27T00:21:35.700Z,7.00
2018-11-27T00:22:35.761Z,6.50
2018-11-27T00:23:35.811Z,6.10
2018-11-27T00:24:35.868Z,6.20
2018-11-27T00:25:35.923Z,6.60
2018-11-27T00:26:35.982Z,6.10
2018-11-27T00:27:36.040Z,6.40
2018-11-27T00:28:36.096Z,6.90
2018-11-27T00:29:36.152Z,6.40
2018-11-27T00:30:36.204Z,6.10
2018-11-27T00:31:36.259Z,6.10
2018-11-27T00:32:36.316Z,6.70
2018-11-27T00:33:36.373Z,6.40
2018-11-27T00:34:36.428Z,6.50
2018-11-27T00:35:36.485Z,6.70
2018-11-27T00:36:36.542Z,5.90
2018-11-27T00:37:36.597Z,6.50
2018-11-27T00:38:36.653Z,6.40
2018-11-27T00:39:36.709Z,6.10
2018-11-27T00:40:36.766Z,6.10
2018-11-27T00:41:36.825Z,6.60
2018-11-27T00:42:36.877Z,6.50
2018-11-27T00:43:36.934Z,5.90
2018-11-27T00:44:36.989Z,6.30
2018-11-27T00:45:37.048Z,5.90
2018-11-27T00:46:37.101Z,6.10
2018-11-27T00:47:37.158Z,6.00
2018-11-27T00:48:37.215Z,6.50
2018-11-27T00:49:37.271Z,6.00
2018-11-27T00:50:37.325Z,5.80
2018-11-27T00:51:37.383Z,6.60
2018-11-27T00:52:37.439Z,6.10
2018-11-27T00:53:37.494Z,6.30
2018-11-27T00:54:37.551Z,6.60
2018-11-27T00:55:37.607Z,6.00
2018-11-27T00:56:37.664Z,6.90
2018-11-27T00:57:37.719Z,5.90
2018-11-27T00:58:37.774Z,5.90
2018-11-27T00:59:37.833Z,5.60
2018-11-27T01:00:37.889Z,5.90
2018-11-27T01:01:37.944Z,6.40
2018-11-27T01:02:37.998Z,6.90
2018-11-27T01:03:38.055Z,6.20
2018-11-27T01:04:38.112Z,5.50
2018-11-27T01:05:38.169Z,6.30
2018-11-27T01:06:38.224Z,6.40
2018-11-27T01:07:38.281Z,5.90
2018-11-27T01:08:38.338Z,5.90
2018-11-27T01:09:38.394Z,5.80
2018-11-27T01:10:38.699Z,6.10
2018-11-27T01:11:38.506Z,6.30
2018-11-27T01:12:38.561Z,6.20
2018-11-27T01:13:38.618Z,5.60
2018-11-27T01:14:38.674Z,6.00
2018-11-27T01:15:38.729Z,5.80
2018-11-27T01:16:38.789Z,5.80
2018-11-27T01:17:38.843Z,6.10
2018-11-27T01:18:38.900Z,6.30
2018-11-27T01:19:38.954Z,5.60
2018-11-27T01:20:39.012Z,6.20
2018-11-27T01:21:39.067Z,5.90
2018-11-27T01:22:39.122Z,6.10
2018-11-27T01:23:39.181Z,5.80
2018-11-27T01:24:39.236Z,5.80
2018-11-27T01:25:39.291Z,5.70
2018-11-27T01:26:39.351Z,5.80
2018-11-27T01:27:39.448Z,6.60
2018-11-27T01:28:39.459Z,6.10
2018-11-27T01:29:39.517Z,6.40
2018-11-27T01:30:39.572Z,6.10
2018-11-27T01:31:39.627Z,6.50
2018-11-27T01:32:39.684Z,6.10
2018-11-27T01:33:39.739Z,5.90
2018-11-27T01:34:39.795Z,6.40
2018-11-27T01:35:39.853Z,6.00
2018-11-27T01:36:39.907Z,6.20
2018-11-27T01:37:39.964Z,5.60
2018-11-27T01:38:40.020Z,6.40
2018-11-27T01:39:40.077Z,6.10
2018-11-27T01:40:40.748Z,5.90
2018-11-27T01:41:40.761Z,6.10
2018-11-27T01:42:40.243Z,6.30
2018-11-27T01:43:40.301Z,6.60
2018-11-27T01:44:40.357Z,6.10
2018-11-27T01:45:40.415Z,6.40
2018-11-27T01:46:40.468Z,6.20
2018-11-27T01:47:40.526Z,5.90
2018-11-27T01:48:40.580Z,5.90
2018-11-27T01:49:40.638Z,6.00
2018-11-27T01:50:40.693Z,6.30
2018-11-27T01:51:40.747Z,6.10
2018-11-27T01:52:40.805Z,6.30
2018-11-27T01:53:40.861Z,6.30
2018-11-27T01:54:40.916Z,6.60
2018-11-27T01:55:40.972Z,6.40
2018-11-27T01:56:41.029Z,6.30
2018-11-27T01:57:41.083Z,6.20
2018-11-27T01:58:41.139Z,6.10
2018-11-27T01:59:41.196Z,6.20
2018-11-27T02:00:41.252Z,6.50
2018-11-27T02:01:41.307Z,5.90
2018-11-27T02:02:41.362Z,6.40
2018-11-27T02:03:41.420Z,6.10
2018-11-27T02:04:41.475Z,6.20
2018-11-27T02:05:41.531Z,6.70
2018-11-27T02:06:41.587Z,7.10
2018-11-27T02:07:41.643Z,6.40
2018-11-27T02:08:41.699Z,6.90
2018-11-27T02:09:41.755Z,5.90
2018-11-27T02:10:41.814Z,6.30
2018-11-27T02:11:41.867Z,6.60
2018-11-27T02:12:41.926Z,6.40
2018-11-27T02:13:41.979Z,6.10
2018-11-27T02:14:42.034Z,5.90
2018-11-27T02:15:42.090Z,6.00
2018-11-27T02:16:42.146Z,6.10
2018-11-27T02:17:42.202Z,6.30
2018-11-27T02:18:42.258Z,6.80
2018-11-27T02:19:42.314Z,5.90
2018-11-27T02:20:42.372Z,6.80
2018-11-27T02:21:42.426Z,6.20
2018-11-27T02:22:42.481Z,7.00
2018-11-27T02:23:42.540Z,6.70
2018-11-27T02:24:42.595Z,6.70
2018-11-27T02:25:42.651Z,6.70
2018-11-27T02:26:42.705Z,6.80
2018-11-27T02:27:42.763Z,6.80
2018-11-27T02:28:42.819Z,6.40
2018-11-27T02:29:42.873Z,6.20
2018-11-27T02:30:42.933Z,6.60
2018-11-27T02:31:42.987Z,6.70
2018-11-27T02:32:43.043Z,6.20
2018-11-27T02:33:43.100Z,6.60
2018-11-27T02:34:43.154Z,6.30
2018-11-27T02:35:43.209Z,6.20
2018-11-27T02:36:43.267Z,6.30
2018-11-27T02:37:43.327Z,6.20
2018-11-27T02:38:43.378Z,6.00
2018-11-27T02:39:43.435Z,6.10
2018-11-27T02:40:43.493Z,6.10
2018-11-27T02:41:43.549Z,6.00
2018-11-27T02:42:43.607Z,6.70
2018-11-27T02:43:43.663Z,6.50
2018-11-27T02:44:43.720Z,6.40
2018-11-27T02:45:43.772Z,6.20
2018-11-27T02:46:43.828Z,5.90
2018-11-27T02:47:43.958Z,7.10
2018-11-27T02:48:43.947Z,6.40
2018-11-27T02:49:43.996Z,6.10
2018-11-27T02:50:44.051Z,6.60
2018-11-27T02:51:44.109Z,6.60
2018-11-27T02:52:44.172Z,6.30
2018-11-27T02:53:44.220Z,6.10
2018-11-27T02:54:44.276Z,6.90
2018-11-27T02:55:44.333Z,6.20
2018-11-27T02:56:44.640Z,5.90
2018-11-27T02:57:44.447Z,6.20
2018-11-27T02:58:44.504Z,6.40
2018-11-27T02:59:44.558Z,6.00
2018-11-27T03:00:44.616Z,6.10
2018-11-27T03:01:44.673Z,5.90
2018-11-27T03:02:44.726Z,6.40
2018-11-27T03:03:44.787Z,6.10
2018-11-27T03:04:44.838Z,5.50
2018-11-27T03:05:44.895Z,6.00
2018-11-27T03:06:44.950Z,6.60
2018-11-27T03:07:45.008Z,6.30
2018-11-27T03:08:45.062Z,6.80
2018-11-27T03:09:45.119Z,6.20
2018-11-27T03:10:45.177Z,6.70
2018-11-27T03:11:45.231Z,6.10
2018-11-27T03:12:45.286Z,6.40
2018-11-27T03:13:45.346Z,6.50
2018-11-27T03:14:45.400Z,6.40
2018-11-27T03:15:45.468Z,6.80
2018-11-27T03:16:45.512Z,6.50
2018-11-27T03:17:45.569Z,7.50
2018-11-27T03:18:45.624Z,6.50
2018-11-27T03:19:45.680Z,6.70
2018-11-27T03:20:45.736Z,6.40
2018-11-27T03:21:45.794Z,6.10
2018-11-27T03:22:45.849Z,5.90
2018-11-27T03:23:45.905Z,6.50
2018-11-27T03:24:45.962Z,6.20
2018-11-27T03:25:46.018Z,6.10
2018-11-27T03:26:46.077Z,6.10
2018-11-27T03:27:46.130Z,5.80
2018-11-27T03:28:46.186Z,6.40
2018-11-27T03:29:46.242Z,6.60
2018-11-27T03:30:46.298Z,6.70
2018-11-27T03:31:46.375Z,6.50
2018-11-27T03:32:46.438Z,6.60
2018-11-27T03:33:46.469Z,5.80
2018-11-27T03:34:46.522Z,6.60
2018-11-27T03:35:46.579Z,6.40
2018-11-27T03:36:46.636Z,6.40
2018-11-27T03:37:47.446Z,6.00
2018-11-27T03:38:46.745Z,6.00
2018-11-27T03:39:46.805Z,6.60
2018-11-27T03:40:46.858Z,6.70
2018-11-27T03:41:46.918Z,6.10
2018-11-27T03:42:46.972Z,6.20
2018-11-27T03:43:47.027Z,6.20
2018-11-27T03:44:47.086Z,6.30
2018-11-27T03:45:47.139Z,6.30
2018-11-27T03:46:47.194Z,6.10
2018-11-27T03:47:47.249Z,6.30
2018-11-27T03:48:47.310Z,6.20
2018-11-27T03:49:48.759Z,6.20
2018-11-27T03:50:47.419Z,6.60
2018-11-27T03:51:47.474Z,6.40
2018-11-27T03:52:47.529Z,6.30
2018-11-27T03:53:47.586Z,6.20
2018-11-27T03:54:47.641Z,6.00
2018-11-27T03:55:47.696Z,6.10
2018-11-27T03:56:47.753Z,6.20
2018-11-27T03:57:47.809Z,6.20
2018-11-27T03:58:47.865Z,6.80
2018-11-27T03:59:47.919Z,7.40
2018-11-27T04:00:47.978Z,6.50
2018-11-27T04:01:48.034Z,6.90
2018-11-27T04:02:48.090Z,7.40
2018-11-27T04:03:48.143Z,6.90
2018-11-27T04:04:48.200Z,6.80
2018-11-27T04:05:48.278Z,7.50
2018-11-27T04:06:48.312Z,6.90
2018-11-27T04:07:48.368Z,7.00
2018-11-27T04:08:48.425Z,6.80
2018-11-27T04:09:48.481Z,7.40
2018-11-27T04:10:48.537Z,8.00
2018-11-27T04:11:48.593Z,7.60
2018-11-27T04:12:48.648Z,7.20
2018-11-27T04:13:48.709Z,7.20
2018-11-27T04:14:48.760Z,6.80
2018-11-27T04:15:48.820Z,7.40
2018-11-27T04:16:48.875Z,7.70
2018-11-27T04:17:48.929Z,7.40
2018-11-27T04:18:48.983Z,7.10
2018-11-27T04:19:49.044Z,7.90
2018-11-27T04:20:49.096Z,7.20
2018-11-27T04:21:49.154Z,7.20
2018-11-27T04:22:49.210Z,7.30
2018-11-27T04:23:49.263Z,7.10
2018-11-27T04:24:49.320Z,7.30
2018-11-27T04:25:49.377Z,7.20
2018-11-27T04:26:49.432Z,7.30
2018-11-27T04:27:49.492Z,7.30
2018-11-27T04:28:49.543Z,8.00
2018-11-27T04:29:49.603Z,7.50
2018-11-27T04:30:49.656Z,7.20
2018-11-27T04:31:49.711Z,7.30
2018-11-27T04:32:49.768Z,7.40
2018-11-27T04:33:49.823Z,6.60
2018-11-27T04:34:49.879Z,7.60
2018-11-27T04:35:49.942Z,7.20
2018-11-27T04:36:49.990Z,6.90
2018-11-27T04:37:50.051Z,7.90
2018-11-27T04:38:50.103Z,6.90
2018-11-27T04:39:50.159Z,7.60
2018-11-27T04:40:50.216Z,7.20
2018-11-27T04:41:50.271Z,6.90
2018-11-27T04:42:50.326Z,7.30
2018-11-27T04:43:50.389Z,7.30
2018-11-27T04:44:50.442Z,7.00
2018-11-27T04:45:50.497Z,7.00
2018-11-27T04:46:50.552Z,7.20
2018-11-27T04:47:50.625Z,7.00
2018-11-27T04:48:50.663Z,7.60
2018-11-27T04:49:50.723Z,7.60
2018-11-27T04:50:50.777Z,7.10
2018-11-27T04:51:50.832Z,7.10
2018-11-27T04:52:50.895Z,6.80
2018-11-27T04:53:50.949Z,7.10
2018-11-27T04:54:51.003Z,6.50
2018-11-27T04:55:51.057Z,6.80
2018-11-27T04:56:51.114Z,7.10
2018-11-27T04:57:51.167Z,7.20
2018-11-27T04:58:51.223Z,7.20
2018-11-27T04:59:51.286Z,7.00
2018-11-27T05:00:51.345Z,7.00
2018-11-27T05:01:51.392Z,6.60
2018-11-27T05:02:51.447Z,7.00
2018-11-27T05:03:51.513Z,7.40
2018-11-27T05:04:51.560Z,7.40
2018-11-27T05:05:51.615Z,7.10
2018-11-27T05:06:51.671Z,6.80
2018-11-27T05:07:51.727Z,7.40
2018-11-27T05:08:51.782Z,7.20
2018-11-27T05:09:51.840Z,6.40
2018-11-27T05:10:51.893Z,6.70
2018-11-27T05:11:51.951Z,6.50
2018-11-27T05:12:52.258Z,6.70
2018-11-27T05:13:52.067Z,7.20
2018-11-27T05:14:52.117Z,6.80
2018-11-27T05:15:52.174Z,7.40
2018-11-27T05:16:52.274Z,7.00
2018-11-27T05:17:52.287Z,6.50
2018-11-27T05:18:52.361Z,6.60
2018-11-27T05:19:52.431Z,7.30
2018-11-27T05:20:52.479Z,7.10
2018-11-27T05:21:52.542Z,7.30
2018-11-27T05:22:52.564Z,6.60
2018-11-27T05:23:52.620Z,6.60
2018-11-27T05:24:52.677Z,6.80
2018-11-27T05:25:52.731Z,6.80
2018-11-27T05:26:52.786Z,7.40
2018-11-27T05:27:52.876Z,6.80
2018-11-27T05:28:52.925Z,6.70
2018-11-27T05:29:52.988Z,7.10
2018-11-27T05:30:53.010Z,6.70
2018-11-27T05:31:53.068Z,6.80
2018-11-27T05:32:53.373Z,6.60
2018-11-27T05:33:53.208Z,6.80
2018-11-27T05:34:53.584Z,6.20
2018-11-27T05:35:53.289Z,6.70
2018-11-27T05:36:53.344Z,6.50
2018-11-27T05:37:53.703Z,7.00
2018-11-27T05:38:53.454Z,7.20
2018-11-27T05:39:53.510Z,6.60
2018-11-27T05:40:53.566Z,6.00
2018-11-27T05:41:53.623Z,6.70
2018-11-27T05:42:53.677Z,6.70
2018-11-27T05:43:53.734Z,7.50
2018-11-27T05:44:53.792Z,6.40
2018-11-27T05:45:53.845Z,6.60
2018-11-27T05:46:53.950Z,6.60
2018-11-27T05:47:53.955Z,6.70
2018-11-27T05:48:54.061Z,6.50
2018-11-27T05:49:54.070Z,7.00
2018-11-27T05:50:54.159Z,7.70
2018-11-27T05:51:54.178Z,6.60
2018-11-27T05:52:54.234Z,7.00
2018-11-27T05:53:54.290Z,7.00
2018-11-27T05:54:54.355Z,6.60
2018-11-27T05:55:54.401Z,6.60
2018-11-27T05:56:54.454Z,6.60
2018-11-27T05:57:54.513Z,6.70
2018-11-27T05:58:54.565Z,6.70
2018-11-27T05:59:54.620Z,7.50
2018-11-27T06:00:54.677Z,6.90
2018-11-27T06:01:54.734Z,6.50
2018-11-27T06:02:54.790Z,7.60
2018-11-27T06:03:54.849Z,6.70
2018-11-27T06:04:54.898Z,6.60
2018-11-27T06:05:54.953Z,7.30
2018-11-27T06:06:55.006Z,7.00
2018-11-27T06:07:55.062Z,7.10
2018-11-27T06:08:55.123Z,7.00
2018-11-27T06:09:55.174Z,7.20
2018-11-27T06:10:55.227Z,7.10
2018-11-27T06:11:55.282Z,7.00
2018-11-27T06:12:55.339Z,7.20
2018-11-27T06:13:55.394Z,7.60
2018-11-27T06:14:55.447Z,6.80
2018-11-27T06:15:55.504Z,7.60
2018-11-27T06:16:55.601Z,7.70
2018-11-27T06:17:55.614Z,6.60
2018-11-27T06:18:55.667Z,6.50
2018-11-27T06:19:55.726Z,6.60
2018-11-27T06:20:55.780Z,6.90
2018-11-27T06:21:55.834Z,6.60
2018-11-27T06:22:55.887Z,6.50
2018-11-27T06:23:55.944Z,7.10
2018-11-27T06:24:55.998Z,7.40
2018-11-27T06:25:56.054Z,6.60
2018-11-27T06:26:56.107Z,6.80
2018-11-27T06:27:56.164Z,7.20
2018-11-27T06:28:56.219Z,7.40
2018-11-27T06:29:56.275Z,6.90
2018-11-27T06:30:56.328Z,7.50
2018-11-27T06:31:56.384Z,7.50
2018-11-27T06:32:56.442Z,6.70
2018-11-27T06:33:56.494Z,6.60
2018-11-27T06:34:56.547Z,7.10
2018-11-27T06:35:56.602Z,7.40
2018-11-27T06:36:56.658Z,6.60
2018-11-27T06:37:56.721Z,7.00
2018-11-27T06:38:56.767Z,6.50
2018-11-27T06:39:56.825Z,6.20
2018-11-27T06:40:56.877Z,7.00
2018-11-27T06:41:56.932Z,7.90
2018-11-27T06:42:56.986Z,7.40
2018-11-27T06:43:57.041Z,6.70
2018-11-27T06:44:57.096Z,6.50
2018-11-27T06:45:57.150Z,7.00
2018-11-27T06:46:57.850Z,6.50
2018-11-27T06:47:57.941Z,6.50
2018-11-27T06:48:57.314Z,6.90
2018-11-27T06:49:57.369Z,7.60
2018-11-27T06:50:57.421Z,6.90
2018-11-27T06:51:57.476Z,6.20
2018-11-27T06:52:57.530Z,6.40
2018-11-27T06:53:57.588Z,6.90
2018-11-27T06:54:57.640Z,7.00
2018-11-27T06:55:57.696Z,6.40
2018-11-27T06:56:57.754Z,7.00
2018-11-27T06:57:57.805Z,6.60
2018-11-27T06:58:57.857Z,6.70
2018-11-27T06:59:57.913Z,6.30
2018-11-27T07:00:57.967Z,7.10
2018-11-27T07:01:58.023Z,6.50
2018-11-27T07:02:58.076Z,6.40
2018-11-27T07:03:58.129Z,7.10
2018-11-27T07:04:58.184Z,6.40
2018-11-27T07:05:58.240Z,6.70
2018-11-27T07:06:58.294Z,7.70
2018-11-27T07:07:58.356Z,6.60
2018-11-27T07:08:58.428Z,7.10
2018-11-27T07:09:58.458Z,7.00
2018-11-27T07:10:58.510Z,6.30
2018-11-27T07:11:58.566Z,6.50
2018-11-27T07:12:58.621Z,6.30
2018-11-27T07:13:58.676Z,7.10
2018-11-27T07:14:58.732Z,6.60
2018-11-27T07:15:58.783Z,6.80
2018-11-27T07:16:58.838Z,6.60
2018-11-27T07:17:58.893Z,7.00
2018-11-27T07:18:58.947Z,6.80
2018-11-27T07:19:59.002Z,6.70
2018-11-27T07:20:59.057Z,6.90
2018-11-27T07:21:59.116Z,6.20
2018-11-27T07:22:59.164Z,6.60
2018-11-27T07:23:59.218Z,6.60
2018-11-27T07:24:59.273Z,6.70
2018-11-27T07:25:59.329Z,6.70
2018-11-27T07:26:59.382Z,6.10
2018-11-27T07:27:59.437Z,6.20
2018-11-27T07:28:59.492Z,7.00
2018-11-27T07:29:59.547Z,6.20
2018-11-27T07:30:59.599Z,6.30
2018-11-27T07:31:59.683Z,6.70
2018-11-27T07:32:59.709Z,6.10
2018-11-27T07:33:59.766Z,6.40
2018-11-27T07:34:59.818Z,6.70
2018-11-27T07:35:59.872Z,6.50
2018-11-27T07:37:00.391Z,6.70
2018-11-27T07:37:59.981Z,7.40
2018-11-27T07:39:00.036Z,6.70
2018-11-27T07:40:03.309Z,6.20
2018-11-27T07:41:00.146Z,6.60
2018-11-27T07:42:00.201Z,6.10
2018-11-27T07:43:00.253Z,7.10
2018-11-27T07:44:00.309Z,6.80
2018-11-27T07:45:00.364Z,7.00
2018-11-27T07:46:00.417Z,5.90
2018-11-27T07:47:00.474Z,6.70
2018-11-27T07:48:00.525Z,6.60
2018-11-27T07:49:01.776Z,6.80
2018-11-27T07:50:00.637Z,6.70
2018-11-27T07:51:00.707Z,6.20
2018-11-27T07:52:00.745Z,6.90
2018-11-27T07:53:00.799Z,6.00
2018-11-27T07:54:00.856Z,6.60
2018-11-27T07:55:00.908Z,6.80
2018-11-27T07:56:00.967Z,6.60
2018-11-27T07:57:01.019Z,6.40
2018-11-27T07:58:01.074Z,6.50
2018-11-27T07:59:01.126Z,6.30
2018-11-27T08:00:01.183Z,6.60
2018-11-27T08:01:01.238Z,6.90
2018-11-27T08:02:01.295Z,6.50
2018-11-27T08:03:01.346Z,7.00
2018-11-27T08:04:01.400Z,6.80
2018-11-27T08:05:01.459Z,6.60
2018-11-27T08:06:01.515Z,6.40
2018-11-27T08:07:01.565Z,6.50
2018-11-27T08:08:01.621Z,6.70
2018-11-27T08:09:01.677Z,6.70
2018-11-27T08:10:01.730Z,6.90
2018-11-27T08:11:01.817Z,6.60
2018-11-27T08:12:01.840Z,6.70
2018-11-27T08:13:01.897Z,6.20
2018-11-27T08:14:01.952Z,6.50
2018-11-27T08:15:02.005Z,6.70
2018-11-27T08:16:02.061Z,6.70
2018-11-27T08:17:02.116Z,6.30
2018-11-27T08:18:02.171Z,6.20
2018-11-27T08:19:02.227Z,6.80
2018-11-27T08:20:02.286Z,6.20
2018-11-27T08:21:02.335Z,6.70
2018-11-27T08:22:02.391Z,6.40
2018-11-27T08:23:02.445Z,6.80
2018-11-27T08:24:02.503Z,6.70
2018-11-27T08:25:02.556Z,6.80
2018-11-27T08:26:02.618Z,6.50
2018-11-27T08:27:02.673Z,6.30
2018-11-27T08:28:02.726Z,7.30
2018-11-27T08:29:02.777Z,6.60
2018-11-27T08:30:02.833Z,6.90
2018-11-27T08:31:02.886Z,6.10
2018-11-27T08:32:02.942Z,6.40
2018-11-27T08:33:03.023Z,6.40
2018-11-27T08:34:03.055Z,6.70
2018-11-27T08:35:03.108Z,6.70
2018-11-27T08:36:03.163Z,6.30
2018-11-27T08:37:03.224Z,6.60
2018-11-27T08:38:03.307Z,7.10
2018-11-27T08:39:03.331Z,7.00
2018-11-27T08:40:03.385Z,7.00
2018-11-27T08:41:03.442Z,7.00
2018-11-27T08:42:03.498Z,6.20
2018-11-27T08:43:03.554Z,6.30
2018-11-27T08:44:03.650Z,7.10
2018-11-27T08:45:03.694Z,7.00
2018-11-27T08:46:03.749Z,6.20
2018-11-27T08:47:03.776Z,6.90
2018-11-27T08:48:03.832Z,6.50
2018-11-27T08:49:03.888Z,7.20
2018-11-27T08:50:03.943Z,6.30
2018-11-27T08:51:04.028Z,6.80
2018-11-27T08:52:04.089Z,6.60
2018-11-27T08:53:04.115Z,6.50
2018-11-27T08:54:04.167Z,7.50
2018-11-27T08:55:04.224Z,6.50
2018-11-27T08:56:04.309Z,6.90
2018-11-27T08:57:04.364Z,6.70
2018-11-27T08:58:04.410Z,6.50
2018-11-27T08:59:04.447Z,7.60
2018-11-27T09:00:04.503Z,6.70
2018-11-27T09:01:04.559Z,7.00
2018-11-27T09:02:04.615Z,6.30
2018-11-27T09:03:04.669Z,7.00
2018-11-27T09:04:04.730Z,6.40
2018-11-27T09:05:04.784Z,6.70
2018-11-27T09:06:04.841Z,6.90
2018-11-27T09:07:04.896Z,6.70
2018-11-27T09:08:04.951Z,6.50
2018-11-27T09:09:05.009Z,7.20
2018-11-27T09:10:05.066Z,6.70
2018-11-27T09:11:05.121Z,7.10
2018-11-27T09:12:05.179Z,7.30
2018-11-27T09:13:05.235Z,7.40
2018-11-27T09:14:05.294Z,7.50
2018-11-27T09:15:05.348Z,6.60
2018-11-27T09:16:05.404Z,6.60
2018-11-27T09:17:05.462Z,7.40
2018-11-27T09:18:05.517Z,6.80
2018-11-27T09:19:05.574Z,8.00
2018-11-27T09:20:05.633Z,7.30
2018-11-27T09:21:05.689Z,7.20
2018-11-27T09:22:05.746Z,7.50
2018-11-27T09:23:05.800Z,6.70
2018-11-27T09:24:05.858Z,7.40
2018-11-27T09:25:05.916Z,6.90
2018-11-27T09:26:05.972Z,6.70
2018-11-27T09:27:06.028Z,7.70
2018-11-27T09:28:06.086Z,6.80
2018-11-27T09:29:06.143Z,7.40
2018-11-27T09:30:06.201Z,7.80
2018-11-27T09:31:06.269Z,7.60
2018-11-27T09:32:06.315Z,6.90
2018-11-27T09:33:06.371Z,7.00
2018-11-27T09:34:06.555Z,7.30
2018-11-27T09:35:06.485Z,6.50
2018-11-27T09:36:06.541Z,7.20
2018-11-27T09:37:06.599Z,6.70
2018-11-27T09:38:06.657Z,6.50
2018-11-27T09:39:06.713Z,6.70
2018-11-27T09:40:06.771Z,6.70
2018-11-27T09:41:06.827Z,5.90
2018-11-27T09:42:06.885Z,6.50
2018-11-27T09:43:06.941Z,6.80
2018-11-27T09:44:07.000Z,6.80
2018-11-27T09:45:07.056Z,6.90
2018-11-27T09:46:07.113Z,7.10
2018-11-27T09:47:07.170Z,7.20
2018-11-27T09:48:07.227Z,6.80
2018-11-27T09:49:07.285Z,6.60
2018-11-27T09:50:07.342Z,6.50
2018-11-27T09:51:07.399Z,7.10
2018-11-27T09:52:07.454Z,6.70
2018-11-27T09:53:07.511Z,6.90
2018-11-27T09:54:07.570Z,6.30
2018-11-27T09:55:07.632Z,7.10
2018-11-27T09:56:07.683Z,7.00
2018-11-27T09:57:07.740Z,6.80
2018-11-27T09:58:07.797Z,6.90
2018-11-27T09:59:07.854Z,6.60
2018-11-27T10:00:07.911Z,6.80
2018-11-27T10:01:07.969Z,6.90
2018-11-27T10:02:08.026Z,6.70
2018-11-27T10:03:08.081Z,7.40
2018-11-27T10:04:08.138Z,6.10
2018-11-27T10:05:08.196Z,6.40
2018-11-27T10:06:08.258Z,7.50
2018-11-27T10:07:08.310Z,6.90
2018-11-27T10:08:08.369Z,7.10
2018-11-27T10:09:08.424Z,8.10
2018-11-27T10:10:08.482Z,7.10
2018-11-27T10:11:08.539Z,7.00
2018-11-27T10:12:08.598Z,7.10
2018-11-27T10:13:08.652Z,7.40
2018-11-27T10:14:08.709Z,7.10
2018-11-27T10:15:08.764Z,7.10
2018-11-27T10:16:08.821Z,6.50
2018-11-27T10:17:08.878Z,6.20
2018-11-27T10:18:08.937Z,6.40
2018-11-27T10:19:08.993Z,6.50
2018-11-27T10:20:09.051Z,6.20
2018-11-27T10:21:09.108Z,8.70
2018-11-27T10:22:09.163Z,9.80
2018-11-27T10:23:09.223Z,6.50
2018-11-27T10:24:09.276Z,10.60
2018-11-27T10:25:09.333Z,7.20
2018-11-27T10:26:09.393Z,6.90
2018-11-27T10:27:09.449Z,5.90
2018-11-27T10:28:09.506Z,7.50
2018-11-27T10:29:09.562Z,8.00
2018-11-27T10:30:09.618Z,8.30
2018-11-27T10:31:09.674Z,6.30
2018-11-27T10:32:09.754Z,6.40
2018-11-27T10:33:09.809Z,8.10
2018-11-27T10:34:09.865Z,6.60
2018-11-27T10:35:09.903Z,6.10
2018-11-27T10:36:09.959Z,6.20
2018-11-27T10:37:10.019Z,6.00
2018-11-27T10:38:10.074Z,6.10
2018-11-27T10:39:10.131Z,5.60
2018-11-27T10:40:10.188Z,6.40
2018-11-27T10:41:10.244Z,6.70
2018-11-27T10:42:10.301Z,6.60
2018-11-27T10:43:10.357Z,6.50
2018-11-27T10:44:10.414Z,6.80
2018-11-27T10:45:10.472Z,6.70
2018-11-27T10:46:10.610Z,7.20
2018-11-27T10:47:10.585Z,7.10
2018-11-27T10:48:10.647Z,6.00
2018-11-27T10:49:10.700Z,6.70
2018-11-27T10:50:10.771Z,6.00
2018-11-27T10:51:10.813Z,6.90
2018-11-27T10:52:10.873Z,7.50
2018-11-27T10:53:10.929Z,6.50
2018-11-27T10:54:10.985Z,6.40
2018-11-27T10:55:11.039Z,5.60
2018-11-27T10:56:11.096Z,7.80
2018-11-27T10:57:11.156Z,6.00
2018-11-27T10:58:11.211Z,5.80
2018-11-27T10:59:11.267Z,6.70
2018-11-27T11:00:11.335Z,6.30
2018-11-27T11:01:12.279Z,5.90
2018-11-27T11:02:11.439Z,5.70
2018-11-27T11:03:11.497Z,6.20
2018-11-27T11:04:11.551Z,5.60
2018-11-27T11:05:11.609Z,6.60
2018-11-27T11:06:11.666Z,6.50
2018-11-27T11:07:11.724Z,5.60
2018-11-27T11:08:11.778Z,6.60
2018-11-27T11:09:11.835Z,5.80
2018-11-27T11:10:11.917Z,5.30
2018-11-27T11:11:12.427Z,5.50
2018-11-27T11:12:12.005Z,6.00
2018-11-27T11:13:12.638Z,5.60
2018-11-27T11:14:12.130Z,5.60
2018-11-27T11:15:12.178Z,5.20
2018-11-27T11:16:12.232Z,6.10
2018-11-27T11:17:12.290Z,5.60
2018-11-27T11:18:12.347Z,5.40
2018-11-27T11:19:12.402Z,5.80
2018-11-27T11:20:12.485Z,5.70
2018-11-27T11:21:12.517Z,5.70
2018-11-27T11:22:12.573Z,5.40
2018-11-27T11:23:12.648Z,5.00
2018-11-27T11:24:12.938Z,5.30
2018-11-27T11:25:12.744Z,4.60
2018-11-27T11:26:12.800Z,4.50
2018-11-27T11:27:12.857Z,4.50
2018-11-27T11:28:12.914Z,5.30
2018-11-27T11:29:12.971Z,5.00
2018-11-27T11:30:13.028Z,5.80
2018-11-27T11:31:13.083Z,4.50
2018-11-27T11:32:13.457Z,4.80
2018-11-27T11:33:13.199Z,5.30
2018-11-27T11:34:13.255Z,4.70
2018-11-27T11:35:13.311Z,4.50
2018-11-27T11:36:13.376Z,4.60
2018-11-27T11:37:13.426Z,4.50
2018-11-27T11:38:13.482Z,4.30
2018-11-27T11:39:13.689Z,4.20
2018-11-27T11:40:13.596Z,4.90
2018-11-27T11:41:13.653Z,5.20
2018-11-27T11:42:13.710Z,5.10
2018-11-27T11:43:13.766Z,4.80
2018-11-27T11:44:13.822Z,5.30
2018-11-27T11:45:14.972Z,4.70
2018-11-27T11:46:14.639Z,5.00
2018-11-27T11:47:13.996Z,5.00
2018-11-27T11:48:14.055Z,5.20
2018-11-27T11:49:14.108Z,5.10
2018-11-27T11:50:14.170Z,5.30
2018-11-27T11:51:14.221Z,5.20
2018-11-27T11:52:14.279Z,5.10
2018-11-27T11:53:14.336Z,5.40
2018-11-27T11:54:14.395Z,5.80
2018-11-27T11:55:14.450Z,6.40
2018-11-27T11:56:14.505Z,5.40
2018-11-27T11:57:14.564Z,5.10
2018-11-27T11:58:14.621Z,5.30
2018-11-27T11:59:14.680Z,5.00
2018-11-27T12:00:14.760Z,5.40
2018-11-27T12:01:14.793Z,5.30
2018-11-27T12:02:14.850Z,5.00
2018-11-27T12:03:14.909Z,4.90
2018-11-27T12:04:14.969Z,5.00
2018-11-27T12:05:15.022Z,4.90
2018-11-27T12:06:15.079Z,5.20
2018-11-27T12:07:15.136Z,4.50
2018-11-27T12:08:15.198Z,4.80
2018-11-27T12:09:15.250Z,4.80
2018-11-27T12:10:15.309Z,4.60
2018-11-27T12:11:15.364Z,4.90
2018-11-27T12:12:15.423Z,4.80
2018-11-27T12:13:15.480Z,4.90
2018-11-27T12:14:15.537Z,4.70
2018-11-27T12:15:15.594Z,4.80
2018-11-27T12:16:15.651Z,4.40
2018-11-27T12:17:15.709Z,4.40
2018-11-27T12:18:15.766Z,4.40
2018-11-27T12:19:15.824Z,4.40
2018-11-27T12:20:15.882Z,5.10
2018-11-27T12:21:15.938Z,4.90
2018-11-27T12:22:15.995Z,4.50
2018-11-27T12:23:16.052Z,4.50
2018-11-27T12:24:16.108Z,4.10
2018-11-27T12:25:16.419Z,4.60
2018-11-27T12:26:16.229Z,4.20
2018-11-27T12:27:16.281Z,4.20
2018-11-27T12:28:16.338Z,4.50
2018-11-27T12:29:16.395Z,4.40
2018-11-27T12:30:16.454Z,3.90
2018-11-27T12:31:16.509Z,4.40
2018-11-27T12:32:16.566Z,3.90
2018-11-27T12:33:16.624Z,3.90
2018-11-27T12:34:16.684Z,4.10
2018-11-27T12:35:16.738Z,4.30
2018-11-27T12:36:17.449Z,4.30
2018-11-27T12:37:16.851Z,4.30
2018-11-27T12:38:16.909Z,4.20
2018-11-27T12:39:16.967Z,4.20
2018-11-27T12:40:17.022Z,4.00
2018-11-27T12:41:17.080Z,4.20
2018-11-27T12:42:17.136Z,4.10
2018-11-27T12:43:17.193Z,4.00
2018-11-27T12:44:17.278Z,4.00
2018-11-27T12:45:17.311Z,4.10
2018-11-27T12:46:17.365Z,4.20
2018-11-27T12:47:17.574Z,3.80
2018-11-27T12:48:17.477Z,3.90
2018-11-27T12:49:17.535Z,3.80
2018-11-27T12:50:17.842Z,3.80
2018-11-27T12:51:18.115Z,3.60
2018-11-27T12:52:17.728Z,4.00
2018-11-27T12:53:17.763Z,3.50
2018-11-27T12:54:17.820Z,3.80
2018-11-27T12:55:17.875Z,4.30
2018-11-27T12:56:17.932Z,4.20
2018-11-27T12:57:17.989Z,4.40
2018-11-27T12:58:18.046Z,4.00
2018-11-27T12:59:18.150Z,3.40
2018-11-27T13:00:18.163Z,3.70
2018-11-27T13:01:18.219Z,3.90
2018-11-27T13:02:18.275Z,4.30
2018-11-27T13:03:18.330Z,3.90
2018-11-27T13:04:18.388Z,3.60
2018-11-27T13:05:18.445Z,3.90
2018-11-27T13:06:18.501Z,3.70
2018-11-27T13:07:18.559Z,3.70
2018-11-27T13:08:18.617Z,4.00
2018-11-27T13:09:18.676Z,4.10
2018-11-27T13:10:18.731Z,3.80
2018-11-27T13:11:18.788Z,3.80
2018-11-27T13:12:18.874Z,3.80
2018-11-27T13:13:19.535Z,4.00
2018-11-27T13:14:18.959Z,3.30
2018-11-27T13:15:19.014Z,3.40
2018-11-27T13:16:19.070Z,3.60
2018-11-27T13:17:19.128Z,4.10
2018-11-27T13:18:19.184Z,3.60
2018-11-27T13:19:19.241Z,4.20